TimeMST,TemperatureF,Dew PointF,Humidity,Sea Level PressureIn,VisibilityMPH,Wind Direction,Wind SpeedMPH,Gust SpeedMPH,PrecipitationIn,Events,Conditions,WindDirDegrees,DateUTC
12:53 AM,-0.0,-16.1,47,30.13,10.0,East,8.1,-,N/A,,Clear,90,2013-02-19 07:53:00
1:53 AM,-2.9,-17.0,51,30.14,10.0,NNE,4.6,-,N/A,,Clear,20,2013-02-19 08:53:00
2:53 AM,3.0,-16.1,41,30.08,10.0,Calm,Calm,-,N/A,,Clear,0,2013-02-19 09:53:00
3:53 AM,-5.1,-18.9,51,30.11,10.0,NNE,8.1,-,N/A,,Clear,30,2013-02-19 10:53:00
4:53 AM,-7.1,-20.9,51,30.12,10.0,North,3.5,-,N/A,,Clear,10,2013-02-19 11:53:00
5:53 AM,-6.0,-20.0,51,30.13,10.0,Calm,Calm,-,N/A,,Clear,0,2013-02-19 12:53:00
6:53 AM,-4.0,-18.9,49,30.17,10.0,SSE,4.6,-,N/A,,Clear,160,2013-02-19 13:53:00
7:53 AM,3.9,-18.0,36,30.12,10.0,Calm,Calm,-,N/A,,Clear,0,2013-02-19 14:53:00
8:53 AM,10.0,-15.0,32,30.10,10.0,Calm,Calm,-,N/A,,Clear,0,2013-02-19 15:53:00
9:53 AM,18.0,-18.9,18,30.03,10.0,Calm,Calm,-,N/A,,Clear,0,2013-02-19 16:53:00
10:53 AM,19.0,-9.0,29,30.00,10.0,SSW,4.6,-,N/A,,Clear,210,2013-02-19 17:53:00
11:53 AM,21.0,-6.0,30,29.98,10.0,South,8.1,-,N/A,,Clear,180,2013-02-19 18:53:00
12:53 PM,26.1,-6.0,25,29.88,10.0,South,11.5,-,N/A,,Clear,180,2013-02-19 19:53:00
1:53 PM,30.0,-13.0,15,29.82,10.0,South,11.5,-,N/A,,Clear,180,2013-02-19 20:53:00
2:53 PM,30.0,-9.0,18,29.76,10.0,South,11.5,-,N/A,,Clear,180,2013-02-19 21:53:00
3:53 PM,27.0,-2.9,27,29.84,10.0,South,15.0,-,N/A,,Clear,180,2013-02-19 22:53:00
5:53 PM,21.9,-0.0,38,29.88,10.0,South,8.1,-,N/A,,Clear,190,2013-02-20 00:53:00
6:53 PM,21.0,-0.9,38,29.87,10.0,Calm,Calm,-,N/A,,Partly Cloudy,0,2013-02-20 01:53:00
7:53 PM,19.9,-0.9,40,29.81,10.0,Calm,Calm,-,N/A,,Partly Cloudy,0,2013-02-20 02:53:00
8:53 PM,18.0,-0.9,44,29.77,10.0,NNE,3.5,-,N/A,,Clear,20,2013-02-20 03:53:00
9:53 PM,19.9,-2.0,38,29.70,10.0,SE,4.6,-,N/A,,Clear,140,2013-02-20 04:53:00
10:53 PM,15.1,-2.0,47,29.71,10.0,NE,4.6,-,N/A,,Clear,50,2013-02-20 05:53:00
11:53 PM,15.1,-2.0,47,29.68,10.0,NE,6.9,-,N/A,,Clear,50,2013-02-20 06:53:00